createdAt,value
2023-08-11T00:00:22.828Z,12.58
2023-08-11T00:03:14.397Z,12.62
2023-08-11T00:05:45.004Z,12.55
2023-08-11T00:08:16.670Z,12.49
2023-08-11T00:10:48.001Z,12.46
2023-08-11T00:13:18.675Z,12.48
2023-08-11T00:15:49.522Z,12.44
2023-08-11T00:18:27.656Z,12.39
2023-08-11T00:21:00.971Z,12.35
2023-08-11T00:23:37.654Z,12.40
2023-08-11T00:26:08.865Z,12.42
2023-08-11T00:28:41.497Z,12.39
2023-08-11T00:31:12.759Z,12.37
2023-08-11T00:33:47.846Z,12.41
2023-08-11T00:36:22.971Z,12.42
2023-08-11T00:39:01.613Z,12.42
2023-08-11T00:41:37.733Z,12.50
2023-08-11T00:44:10.364Z,12.56
2023-08-11T00:46:44.434Z,12.55
2023-08-11T00:49:16.335Z,12.44
2023-08-11T00:51:46.965Z,12.42
2023-08-11T00:54:17.905Z,12.36
2023-08-11T00:56:49.459Z,12.27
2023-08-11T00:59:21.833Z,12.19
2023-08-11T01:01:56.630Z,12.14
2023-08-11T01:04:27.414Z,12.04
2023-08-11T01:07:05.991Z,11.99
2023-08-11T01:09:44.389Z,11.95
2023-08-11T01:12:19.532Z,11.87
2023-08-11T01:14:54.858Z,11.84
2023-08-11T01:17:25.959Z,11.90
2023-08-11T01:19:56.726Z,11.97
2023-08-11T01:22:31.699Z,11.96
2023-08-11T01:25:02.436Z,11.92
2023-08-11T01:27:32.915Z,11.94
2023-08-11T01:30:03.426Z,11.92
2023-08-11T01:32:39.611Z,11.94
2023-08-11T01:35:19.734Z,11.91
2023-08-11T01:38:00.679Z,11.91
2023-08-11T01:40:31.588Z,11.91
2023-08-11T01:43:06.947Z,11.88
2023-08-11T01:45:44.404Z,11.78
2023-08-11T01:48:15.850Z,11.72
2023-08-11T01:50:47.125Z,11.73
2023-08-11T01:53:18.775Z,11.70
2023-08-11T01:55:50.466Z,11.69
2023-08-11T01:58:21.215Z,11.65
2023-08-11T02:00:55.348Z,11.58
2023-08-11T02:03:26.032Z,11.48
2023-08-11T02:06:00.095Z,11.38
2023-08-11T02:08:33.230Z,11.27
2023-08-11T02:11:04.788Z,11.20
2023-08-11T02:13:35.384Z,11.18
2023-08-11T02:16:06.219Z,11.19
2023-08-11T02:18:36.873Z,11.21
2023-08-11T02:21:11.490Z,11.25
2023-08-11T02:23:46.703Z,11.28
2023-08-11T02:26:20.004Z,11.28
2023-08-11T02:28:53.056Z,11.31
2023-08-11T02:31:24.143Z,11.36
2023-08-11T02:33:56.465Z,11.40
2023-08-11T02:36:30.249Z,11.42
2023-08-11T02:39:01.016Z,11.37
2023-08-11T02:41:31.862Z,11.29
2023-08-11T02:44:04.523Z,11.23
2023-08-11T02:46:35.417Z,11.14
2023-08-11T02:49:06.362Z,11.08
2023-08-11T02:51:45.187Z,11.01
2023-08-11T02:54:18.396Z,11.00
2023-08-11T02:56:49.618Z,11.01
2023-08-11T02:59:27.095Z,11.05
2023-08-11T03:01:58.411Z,11.12
2023-08-11T03:04:29.712Z,11.15
2023-08-11T03:07:02.427Z,11.22
2023-08-11T03:09:36.556Z,11.18
2023-08-11T03:12:08.865Z,11.04
2023-08-11T03:14:39.983Z,10.94
2023-08-11T03:17:13.891Z,10.88
2023-08-11T03:19:47.503Z,10.83
2023-08-11T03:22:21.074Z,10.86
2023-08-11T03:25:18.911Z,10.83
2023-08-11T03:27:55.639Z,10.79
2023-08-11T03:30:27.780Z,10.74
2023-08-11T03:33:01.928Z,10.71
2023-08-11T03:35:56.570Z,10.73
2023-08-11T03:38:28.341Z,10.73
2023-08-11T03:40:59.141Z,10.71
2023-08-11T03:43:29.751Z,10.70
2023-08-11T03:46:00.680Z,10.71
2023-08-11T03:48:34.579Z,10.74
2023-08-11T03:51:05.455Z,10.80
2023-08-11T03:53:36.197Z,10.87
2023-08-11T03:56:08.931Z,10.96
2023-08-11T03:58:42.284Z,11.04
2023-08-11T04:01:14.176Z,11.12
2023-08-11T04:03:46.656Z,11.19
2023-08-11T04:06:17.582Z,11.26
2023-08-11T04:08:48.307Z,11.28
2023-08-11T04:11:23.262Z,11.31
2023-08-11T04:13:55.842Z,11.35
2023-08-11T04:16:26.872Z,11.41
2023-08-11T04:19:03.332Z,11.49
2023-08-11T04:21:36.189Z,11.64
2023-08-11T04:24:14.072Z,12.43
2023-08-11T04:26:44.708Z,13.75
2023-08-11T04:29:15.322Z,14.88
2023-08-11T04:31:45.942Z,15.98
2023-08-11T04:34:17.729Z,17.01
2023-08-11T04:36:48.914Z,17.96
2023-08-11T04:39:22.571Z,18.82
2023-08-11T04:41:55.973Z,18.98
2023-08-11T04:44:52.895Z,18.87
2023-08-11T04:47:26.177Z,18.94
2023-08-11T04:49:58.811Z,19.10
2023-08-11T04:52:29.624Z,19.55
2023-08-11T04:55:00.435Z,20.14
2023-08-11T04:57:30.867Z,20.82
2023-08-11T05:00:04.027Z,21.57
2023-08-11T05:02:39.002Z,22.26
2023-08-11T05:05:10.339Z,22.97
2023-08-11T05:07:41.349Z,23.67
2023-08-11T05:10:16.859Z,24.27
2023-08-11T05:12:52.382Z,24.85
2023-08-11T05:15:24.399Z,25.18
2023-08-11T05:17:59.939Z,25.66
2023-08-11T05:20:30.990Z,26.05
2023-08-11T05:23:01.763Z,26.36
2023-08-11T05:25:32.239Z,26.61
2023-08-11T05:28:06.720Z,26.93
2023-08-11T05:30:37.390Z,27.25
2023-08-11T05:33:08.338Z,27.49
2023-08-11T05:35:39.129Z,27.33
2023-08-11T05:38:09.584Z,26.95
2023-08-11T05:40:40.420Z,26.44
2023-08-11T05:43:10.934Z,25.81
2023-08-11T05:45:41.649Z,25.21
2023-08-11T05:48:14.827Z,24.55
2023-08-11T05:50:47.343Z,23.93
2023-08-11T05:53:20.248Z,23.39
2023-08-11T05:55:52.101Z,22.94
2023-08-11T05:58:22.914Z,22.52
2023-08-11T06:00:54.926Z,22.12
2023-08-11T06:03:31.712Z,21.75
2023-08-11T06:06:03.294Z,21.38
2023-08-11T06:08:37.157Z,21.07
2023-08-11T06:11:07.794Z,20.81
2023-08-11T06:13:41.477Z,20.55
2023-08-11T06:16:13.135Z,20.21
2023-08-11T06:18:45.199Z,20.04
2023-08-11T06:21:18.939Z,19.91
2023-08-11T06:23:49.729Z,19.82
2023-08-11T06:26:25.804Z,19.72
2023-08-11T06:28:57.178Z,19.63
2023-08-11T06:31:27.933Z,19.56
2023-08-11T06:34:07.091Z,19.53
2023-08-11T06:36:41.633Z,19.50
2023-08-11T06:39:13.123Z,19.44
2023-08-11T06:41:44.126Z,19.41
2023-08-11T06:44:19.161Z,19.40
2023-08-11T06:46:54.514Z,19.38
2023-08-11T06:49:27.630Z,19.38
2023-08-11T06:52:04.072Z,19.41
2023-08-11T06:54:35.319Z,19.46
2023-08-11T06:57:06.225Z,19.52
2023-08-11T06:59:36.998Z,19.59
2023-08-11T07:02:07.860Z,19.65
2023-08-11T07:04:38.588Z,19.69
2023-08-11T07:07:09.704Z,19.75
2023-08-11T07:09:46.288Z,19.85
2023-08-11T07:12:16.829Z,19.92
2023-08-11T07:14:47.388Z,20.02
2023-08-11T07:17:18.088Z,20.13
2023-08-11T07:19:48.939Z,20.17
2023-08-11T07:22:25.051Z,20.23
2023-08-11T07:25:00.752Z,20.27
2023-08-11T07:27:31.331Z,20.35
2023-08-11T07:30:01.862Z,20.52
2023-08-11T07:32:34.562Z,20.77
2023-08-11T07:35:08.463Z,20.95
2023-08-11T07:37:39.057Z,21.19
2023-08-11T07:40:10.907Z,21.40
2023-08-11T07:42:41.475Z,21.61
2023-08-11T07:45:12.938Z,21.71
2023-08-11T07:47:46.805Z,21.73
2023-08-11T07:50:17.679Z,21.70
2023-08-11T07:52:48.147Z,21.70
2023-08-11T07:55:19.385Z,21.74
2023-08-11T07:57:56.476Z,21.80
2023-08-11T08:00:27.101Z,21.93
2023-08-11T08:02:58.002Z,22.05
2023-08-11T08:05:28.955Z,22.15
2023-08-11T08:07:59.577Z,22.19
2023-08-11T08:10:31.549Z,22.18
2023-08-11T08:13:02.072Z,22.12
2023-08-11T08:15:32.831Z,22.11
2023-08-11T08:18:05.949Z,22.10
2023-08-11T08:20:36.645Z,22.14
2023-08-11T08:23:12.033Z,22.18
2023-08-11T08:25:44.411Z,22.22
2023-08-11T08:28:17.336Z,22.24
2023-08-11T08:30:48.183Z,22.26
2023-08-11T08:33:18.672Z,22.30
2023-08-11T08:35:52.223Z,22.37
2023-08-11T08:38:24.779Z,22.43
2023-08-11T08:40:56.470Z,22.48
2023-08-11T08:43:27.296Z,22.56
2023-08-11T08:45:59.083Z,22.65
2023-08-11T08:48:35.064Z,22.75
2023-08-11T08:51:05.736Z,22.88
2023-08-11T08:53:36.315Z,22.99
2023-08-11T08:56:09.393Z,23.13
2023-08-11T08:58:42.923Z,23.31
2023-08-11T09:01:14.712Z,23.50
2023-08-11T09:03:47.537Z,23.67
2023-08-11T09:06:18.619Z,23.93
2023-08-11T09:08:50.561Z,24.21
2023-08-11T09:11:23.110Z,24.55
2023-08-11T09:13:54.800Z,24.90
2023-08-11T09:16:25.889Z,25.13
2023-08-11T09:18:56.711Z,25.30
2023-08-11T09:21:27.502Z,25.53
2023-08-11T09:23:58.373Z,25.69
2023-08-11T09:26:30.975Z,25.88
2023-08-11T09:29:01.563Z,26.10
2023-08-11T09:31:32.237Z,26.38
2023-08-11T09:34:14.205Z,26.67
2023-08-11T09:36:45.373Z,26.80
2023-08-11T09:39:19.350Z,26.97
2023-08-11T09:41:51.010Z,27.19
2023-08-11T09:44:27.096Z,27.49
2023-08-11T09:46:57.929Z,27.60
2023-08-11T09:49:28.676Z,27.71
2023-08-11T09:52:05.467Z,27.94
2023-08-11T09:54:36.782Z,28.04
2023-08-11T09:57:16.369Z,28.12
2023-08-11T09:59:48.335Z,28.11
2023-08-11T10:02:22.349Z,28.16
2023-08-11T10:04:58.767Z,28.22
2023-08-11T10:07:32.202Z,28.32
2023-08-11T10:10:07.859Z,28.38
2023-08-11T10:12:41.818Z,28.43
2023-08-11T10:15:15.797Z,28.50
2023-08-11T10:17:46.453Z,28.55
2023-08-11T10:20:17.443Z,28.56
2023-08-11T10:22:48.068Z,28.66
2023-08-11T10:25:19.734Z,28.80
2023-08-11T10:27:55.409Z,28.91
2023-08-11T10:30:27.228Z,29.12
2023-08-11T10:33:06.136Z,29.28
2023-08-11T10:35:50.610Z,29.50
2023-08-11T10:38:27.021Z,29.58
2023-08-11T10:41:03.097Z,29.56
2023-08-11T10:43:34.635Z,29.57
2023-08-11T10:46:19.758Z,29.70
2023-08-11T10:48:50.401Z,29.72
2023-08-11T10:51:28.896Z,29.69
2023-08-11T10:54:02.338Z,29.85
2023-08-11T10:56:34.222Z,29.92
2023-08-11T10:59:13.857Z,29.68
2023-08-11T11:01:46.804Z,29.58
2023-08-11T11:04:19.070Z,29.85
2023-08-11T11:06:50.708Z,29.96
2023-08-11T11:09:23.874Z,29.96
2023-08-11T11:11:57.309Z,30.11
2023-08-11T11:14:31.061Z,30.19
2023-08-11T11:17:02.438Z,30.35
2023-08-11T11:19:34.381Z,30.39
2023-08-11T11:22:09.773Z,30.21
2023-08-11T11:24:44.107Z,29.93
2023-08-11T11:27:14.823Z,29.70
2023-08-11T11:29:48.539Z,29.74
2023-08-11T11:32:22.162Z,29.90
2023-08-11T11:34:55.721Z,30.04
2023-08-11T11:37:26.342Z,30.24
2023-08-11T11:40:05.125Z,30.44
2023-08-11T11:42:36.367Z,30.78
2023-08-11T11:45:08.729Z,30.91
2023-08-11T11:47:41.728Z,30.79
2023-08-11T11:50:15.083Z,30.34
2023-08-11T11:52:53.222Z,29.80
2023-08-11T11:55:23.635Z,29.27
2023-08-11T11:57:57.820Z,28.84
2023-08-11T12:00:30.206Z,28.60
2023-08-11T12:03:01.079Z,28.64
2023-08-11T12:05:34.901Z,28.77
2023-08-11T12:08:25.717Z,28.91
2023-08-11T12:10:57.135Z,29.03
2023-08-11T12:13:28.719Z,29.26
2023-08-11T12:15:59.905Z,29.38
2023-08-11T12:18:32.557Z,29.50
2023-08-11T12:21:04.945Z,29.50
2023-08-11T12:23:36.794Z,29.65
2023-08-11T12:26:09.079Z,29.85
2023-08-11T12:28:39.770Z,29.99
2023-08-11T12:31:13.748Z,30.01
2023-08-11T12:33:44.886Z,29.96
2023-08-11T12:36:16.301Z,29.97
2023-08-11T12:38:48.158Z,29.97
2023-08-11T12:41:20.156Z,29.94
2023-08-11T12:43:51.732Z,29.65
2023-08-11T12:46:23.333Z,29.35
2023-08-11T12:48:55.656Z,29.22
2023-08-11T12:51:26.527Z,29.18
2023-08-11T12:53:57.583Z,29.03
2023-08-11T12:56:28.418Z,28.66
2023-08-11T12:59:00.592Z,28.61
2023-08-11T13:01:31.589Z,28.71
2023-08-11T13:04:03.046Z,28.83
2023-08-11T13:06:33.769Z,28.84
2023-08-11T13:09:13.522Z,28.62
2023-08-11T13:11:46.736Z,28.29
2023-08-11T13:14:17.401Z,28.14
2023-08-11T13:16:48.338Z,28.13
2023-08-11T13:19:19.064Z,28.23
2023-08-11T13:21:49.893Z,28.22
2023-08-11T13:24:21.603Z,28.31
2023-08-11T13:26:53.525Z,28.38
2023-08-11T13:29:24.877Z,28.44
2023-08-11T13:32:01.796Z,28.40
2023-08-11T13:34:32.514Z,28.18
2023-08-11T13:37:03.282Z,27.82
2023-08-11T13:39:34.925Z,27.70
2023-08-11T13:42:07.485Z,27.68
2023-08-11T13:44:38.516Z,27.65
2023-08-11T13:47:09.028Z,27.59
2023-08-11T13:49:40.020Z,27.38
2023-08-11T13:52:11.025Z,27.33
2023-08-11T13:54:44.220Z,27.32
2023-08-11T13:57:14.725Z,27.35
2023-08-11T13:59:45.334Z,27.48
2023-08-11T14:02:16.029Z,27.64
2023-08-11T14:04:46.795Z,27.68
2023-08-11T14:07:29.515Z,27.68
2023-08-11T14:10:01.758Z,27.57
2023-08-11T14:12:32.357Z,27.38
2023-08-11T14:15:02.958Z,27.11
2023-08-11T14:17:33.756Z,26.94
2023-08-11T14:20:04.276Z,26.98
2023-08-11T14:22:34.975Z,26.97
2023-08-11T14:25:06.154Z,26.88
2023-08-11T14:27:36.823Z,26.76
2023-08-11T14:30:08.906Z,26.62
2023-08-11T14:32:39.561Z,26.61
2023-08-11T14:35:10.584Z,26.50
2023-08-11T14:37:41.337Z,26.40
2023-08-11T14:40:15.032Z,26.39
2023-08-11T14:42:45.662Z,26.39
2023-08-11T14:45:16.800Z,26.33
2023-08-11T14:47:48.335Z,26.24
2023-08-11T14:50:19.464Z,26.26
2023-08-11T14:52:50.329Z,26.26
2023-08-11T14:55:25.188Z,26.19
2023-08-11T14:57:56.519Z,26.12
2023-08-11T15:00:27.183Z,25.98
2023-08-11T15:02:58.168Z,25.77
2023-08-11T15:05:28.888Z,25.65
2023-08-11T15:07:59.795Z,25.58
2023-08-11T15:10:30.389Z,25.52
2023-08-11T15:13:04.179Z,25.37
2023-08-11T15:15:35.799Z,25.26
2023-08-11T15:18:07.683Z,25.22
2023-08-11T15:20:38.176Z,25.20
2023-08-11T15:23:08.845Z,25.13
2023-08-11T15:25:41.846Z,24.99
2023-08-11T15:28:14.549Z,24.86
2023-08-11T15:30:45.106Z,24.81
2023-08-11T15:33:15.712Z,24.73
2023-08-11T15:35:46.276Z,24.62
2023-08-11T15:38:16.733Z,24.49
2023-08-11T15:40:47.180Z,24.41
2023-08-11T15:43:18.249Z,24.37
2023-08-11T15:45:48.895Z,24.30
2023-08-11T15:48:19.654Z,24.24
2023-08-11T15:50:50.235Z,24.13
2023-08-11T15:53:23.423Z,24.07
2023-08-11T15:55:55.112Z,24.03
2023-08-11T15:58:25.850Z,23.99
2023-08-11T16:00:56.329Z,23.93
2023-08-11T16:03:27.737Z,23.83
2023-08-11T16:05:58.387Z,23.72
2023-08-11T16:08:29.209Z,23.63
2023-08-11T16:10:59.852Z,23.59
2023-08-11T16:13:30.752Z,23.53
2023-08-11T16:16:01.261Z,23.47
2023-08-11T16:18:32.746Z,23.43
2023-08-11T16:21:04.406Z,23.37
2023-08-11T16:23:35.714Z,23.33
2023-08-11T16:26:06.271Z,23.28
2023-08-11T16:28:36.951Z,23.21
2023-08-11T16:31:07.563Z,23.18
2023-08-11T16:33:38.567Z,23.16
2023-08-11T16:36:09.129Z,23.10
2023-08-11T16:38:40.237Z,23.04
2023-08-11T16:41:14.432Z,22.99
2023-08-11T16:43:46.480Z,22.94
2023-08-11T16:46:17.696Z,22.86
2023-08-11T16:48:48.858Z,22.80
2023-08-11T16:51:19.584Z,22.70
2023-08-11T16:53:50.372Z,22.61
2023-08-11T16:56:22.617Z,22.51
2023-08-11T16:58:55.572Z,22.43
2023-08-11T17:01:26.374Z,22.37
2023-08-11T17:03:57.162Z,22.30
2023-08-11T17:06:28.142Z,22.22
2023-08-11T17:08:59.330Z,22.14
2023-08-11T17:11:30.065Z,22.07
2023-08-11T17:14:01.036Z,22.00
2023-08-11T17:16:32.166Z,21.94
2023-08-11T17:19:02.958Z,21.85
2023-08-11T17:21:34.272Z,21.78
2023-08-11T17:24:06.304Z,21.73
2023-08-11T17:26:37.069Z,21.64
2023-08-11T17:29:08.043Z,21.54
2023-08-11T17:31:38.729Z,21.46
2023-08-11T17:34:09.803Z,21.37
2023-08-11T17:36:40.408Z,21.30
2023-08-11T17:39:13.275Z,21.22
2023-08-11T17:41:46.874Z,21.13
2023-08-11T17:44:18.958Z,21.02
2023-08-11T17:46:49.948Z,20.90
2023-08-11T17:49:22.064Z,20.77
2023-08-11T17:51:54.448Z,20.64
2023-08-11T17:54:26.089Z,20.51
2023-08-11T17:56:57.803Z,20.36
2023-08-11T17:59:28.674Z,20.22
2023-08-11T18:01:59.303Z,20.10
2023-08-11T18:04:30.077Z,19.96
2023-08-11T18:07:00.579Z,19.81
2023-08-11T18:09:31.256Z,19.66
2023-08-11T18:12:01.744Z,19.51
2023-08-11T18:14:33.764Z,19.41
2023-08-11T18:17:04.663Z,19.30
2023-08-11T18:19:35.499Z,19.17
2023-08-11T18:22:06.107Z,19.06
2023-08-11T18:24:36.805Z,18.92
2023-08-11T18:27:07.905Z,18.78
2023-08-11T18:29:39.587Z,18.62
2023-08-11T18:32:10.669Z,18.47
2023-08-11T18:34:42.165Z,18.33
2023-08-11T18:37:12.834Z,18.19
2023-08-11T18:39:43.619Z,18.06
2023-08-11T18:42:14.682Z,17.92
2023-08-11T18:44:45.723Z,17.77
2023-08-11T18:47:16.275Z,17.64
2023-08-11T18:49:47.403Z,17.53
2023-08-11T18:52:17.869Z,17.41
2023-08-11T18:54:48.834Z,17.32
2023-08-11T18:57:20.198Z,17.23
2023-08-11T18:59:54.911Z,17.12
2023-08-11T19:02:25.734Z,17.00
2023-08-11T19:04:57.113Z,16.88
2023-08-11T19:07:28.368Z,16.78
2023-08-11T19:09:59.926Z,16.69
2023-08-11T19:12:30.433Z,16.60
2023-08-11T19:15:01.685Z,16.50
2023-08-11T19:17:32.278Z,16.42
2023-08-11T19:20:03.946Z,16.35
2023-08-11T19:22:34.613Z,16.28
2023-08-11T19:25:07.210Z,16.21
2023-08-11T19:27:37.771Z,16.13
2023-08-11T19:30:12.260Z,16.06
2023-08-11T19:32:42.747Z,15.98
2023-08-11T19:35:13.708Z,15.91
2023-08-11T19:37:44.374Z,15.84
2023-08-11T19:40:15.411Z,15.76
2023-08-11T19:42:45.917Z,15.70
2023-08-11T19:45:16.653Z,15.65
2023-08-11T19:47:47.262Z,15.60
2023-08-11T19:50:18.718Z,15.55
2023-08-11T19:52:51.279Z,15.51
2023-08-11T19:55:22.958Z,15.46
2023-08-11T19:57:55.646Z,15.41
2023-08-11T20:00:26.941Z,15.35
2023-08-11T20:03:00.937Z,15.29
2023-08-11T20:05:32.835Z,15.23
2023-08-11T20:08:05.061Z,15.19
2023-08-11T20:10:35.711Z,15.15
2023-08-11T20:13:06.204Z,15.11
2023-08-11T20:15:36.857Z,15.07
2023-08-11T20:18:07.621Z,15.02
2023-08-11T20:20:38.944Z,15.00
2023-08-11T20:23:09.584Z,14.97
2023-08-11T20:25:40.255Z,14.94
2023-08-11T20:28:10.874Z,14.91
2023-08-11T20:30:43.311Z,14.88
2023-08-11T20:33:13.911Z,14.85
2023-08-11T20:35:47.254Z,14.82
2023-08-11T20:38:17.642Z,14.75
2023-08-11T20:40:49.788Z,14.66
2023-08-11T20:43:20.249Z,14.58
2023-08-11T20:45:51.225Z,14.51
2023-08-11T20:48:23.027Z,14.44
2023-08-11T20:50:59.740Z,14.37
2023-08-11T20:53:30.114Z,14.30
2023-08-11T20:56:02.364Z,14.23
2023-08-11T20:58:32.984Z,14.17
2023-08-11T21:01:03.822Z,14.10
2023-08-11T21:03:34.617Z,14.05
2023-08-11T21:06:06.060Z,14.01
2023-08-11T21:08:36.547Z,13.97
2023-08-11T21:11:07.545Z,13.95
2023-08-11T21:13:38.099Z,13.91
2023-08-11T21:16:09.141Z,13.86
2023-08-11T21:18:39.814Z,13.82
2023-08-11T21:21:10.684Z,13.77
2023-08-11T21:23:41.177Z,13.71
2023-08-11T21:26:12.455Z,13.66
2023-08-11T21:28:43.015Z,13.61
2023-08-11T21:31:18.833Z,13.58
2023-08-11T21:34:00.106Z,13.54
2023-08-11T21:36:30.679Z,13.51
2023-08-11T21:39:02.337Z,13.48
2023-08-11T21:41:34.698Z,13.44
2023-08-11T21:44:08.319Z,13.39
2023-08-11T21:46:39.150Z,13.35
2023-08-11T21:49:09.936Z,13.31
2023-08-11T21:51:40.793Z,13.27
2023-08-11T21:54:11.308Z,13.22
2023-08-11T21:56:42.275Z,13.17
2023-08-11T21:59:12.941Z,13.13
2023-08-11T22:01:43.975Z,13.11
2023-08-11T22:04:15.132Z,13.07
2023-08-11T22:06:45.830Z,13.04
2023-08-11T22:09:16.291Z,13.01
2023-08-11T22:11:47.115Z,12.97
2023-08-11T22:14:18.845Z,12.94
2023-08-11T22:16:49.994Z,12.92
2023-08-11T22:19:20.758Z,12.87
2023-08-11T22:21:53.400Z,12.84
2023-08-11T22:24:38.793Z,12.80
2023-08-11T22:27:12.632Z,12.77
2023-08-11T22:29:45.332Z,12.73
2023-08-11T22:32:16.844Z,12.69
2023-08-11T22:34:54.468Z,12.65
2023-08-11T22:37:26.219Z,12.62
2023-08-11T22:40:21.425Z,12.59
2023-08-11T22:42:55.575Z,12.56
2023-08-11T22:45:26.340Z,12.53
2023-08-11T22:47:58.572Z,12.49
2023-08-11T22:50:29.856Z,12.45
2023-08-11T22:53:01.314Z,12.41
2023-08-11T22:55:32.976Z,12.38
2023-08-11T22:58:04.119Z,12.34
2023-08-11T23:00:34.610Z,12.30
2023-08-11T23:03:06.140Z,12.26
2023-08-11T23:05:36.600Z,12.22
2023-08-11T23:08:07.942Z,12.18
2023-08-11T23:10:38.478Z,12.14
2023-08-11T23:13:09.171Z,12.10
2023-08-11T23:15:39.685Z,12.05
2023-08-11T23:18:10.482Z,12.01
2023-08-11T23:20:41.399Z,11.98
2023-08-11T23:23:13.084Z,11.94
2023-08-11T23:25:44.261Z,11.91
2023-08-11T23:28:15.754Z,11.88
2023-08-11T23:30:46.249Z,11.84
2023-08-11T23:33:17.632Z,11.81
2023-08-11T23:35:48.198Z,11.77
2023-08-11T23:38:19.380Z,11.74
2023-08-11T23:40:49.960Z,11.72
2023-08-11T23:43:20.943Z,11.69
2023-08-11T23:45:51.691Z,11.67
2023-08-11T23:48:24.688Z,11.64
2023-08-11T23:50:57.451Z,11.59
2023-08-11T23:53:28.740Z,11.53
2023-08-11T23:56:00.726Z,11.48
2023-08-11T23:58:31.684Z,11.45
